createdAt,value
2019-01-16T00:05:04.084Z,7.47
2019-01-16T00:10:53.944Z,7.30
2019-01-16T00:16:31.894Z,8.43
2019-01-16T00:22:22.814Z,8.50
2019-01-16T00:28:02.299Z,6.80
2019-01-16T00:33:37.795Z,6.17
2019-01-16T00:39:27.800Z,5.30
2019-01-16T00:44:56.781Z,4.83
2019-01-16T00:50:31.461Z,4.47
2019-01-16T00:56:04.669Z,4.60
2019-01-16T01:01:42.806Z,5.20
2019-01-16T01:07:24.386Z,5.73
2019-01-16T01:12:55.960Z,5.30
2019-01-16T01:18:32.466Z,5.50
2019-01-16T01:24:07.609Z,7.10
2019-01-16T01:29:45.818Z,6.93
2019-01-16T01:35:15.651Z,15.00
2019-01-16T01:40:47.124Z,8.27
2019-01-16T01:46:19.795Z,7.80
2019-01-16T01:52:04.359Z,9.80
2019-01-16T01:57:35.069Z,12.90
2019-01-16T02:03:15.513Z,11.47
2019-01-16T02:08:49.315Z,6.93
2019-01-16T02:14:21.678Z,10.97
2019-01-16T02:20:00.326Z,8.57
2019-01-16T02:25:37.476Z,6.83
2019-01-16T02:31:08.536Z,6.83
2019-01-16T02:36:37.684Z,8.93
2019-01-16T02:42:15.404Z,8.03
2019-01-16T02:47:49.138Z,14.23
2019-01-16T02:53:22.311Z,12.80
2019-01-16T02:58:48.971Z,11.93
2019-01-16T03:04:36.186Z,11.17
2019-01-16T03:10:15.722Z,11.80
2019-01-16T03:15:47.343Z,9.27
2019-01-16T03:21:27.653Z,7.30
2019-01-16T03:27:09.185Z,9.00
2019-01-16T03:32:43.243Z,9.53
2019-01-16T03:38:26.975Z,10.40
2019-01-16T03:43:56.067Z,9.77
2019-01-16T03:49:29.459Z,8.97
2019-01-16T03:55:02.237Z,10.00
2019-01-16T04:00:36.269Z,8.13
2019-01-16T04:06:04.538Z,7.23
2019-01-16T04:11:37.448Z,5.30
2019-01-16T04:17:17.677Z,5.50
2019-01-16T04:22:54.906Z,6.00
2019-01-16T04:28:44.819Z,4.40
2019-01-16T04:34:24.250Z,5.20
2019-01-16T04:39:55.962Z,5.70
2019-01-16T04:45:28.236Z,5.43
2019-01-16T04:51:01.157Z,4.37
2019-01-16T04:56:32.182Z,4.97
2019-01-16T05:02:11.397Z,4.80
2019-01-16T05:07:41.547Z,5.10
2019-01-16T05:13:20.882Z,5.37
2019-01-16T05:18:52.915Z,5.07
2019-01-16T05:24:37.799Z,4.97
2019-01-16T05:30:23.486Z,7.20
2019-01-16T05:36:10.032Z,8.13
2019-01-16T05:41:59.812Z,11.60
2019-01-16T05:47:29.674Z,18.83
2019-01-16T05:53:04.651Z,15.90
2019-01-16T05:58:38.533Z,18.60
2019-01-16T06:04:12.360Z,26.73
2019-01-16T06:09:47.545Z,34.53
2019-01-16T06:15:34.094Z,29.67
2019-01-16T06:21:09.065Z,54.67
2019-01-16T06:32:33.805Z,54.40
2019-01-16T06:38:06.300Z,38.67
2019-01-16T06:43:50.315Z,28.67
2019-01-16T06:49:23.912Z,22.87
2019-01-16T06:54:54.562Z,16.27
2019-01-16T07:00:25.679Z,10.30
2019-01-16T07:06:06.903Z,25.60
2019-01-16T07:11:40.636Z,24.57
2019-01-16T07:17:08.025Z,14.50
2019-01-16T07:22:46.078Z,20.33
2019-01-16T07:28:24.598Z,10.90
2019-01-16T07:34:14.087Z,10.63
2019-01-16T07:39:46.220Z,8.27
2019-01-16T07:45:16.810Z,13.83
2019-01-16T07:50:59.796Z,11.30
2019-01-16T07:56:33.674Z,15.70
2019-01-16T08:02:09.265Z,7.43
2019-01-16T08:07:42.013Z,11.83
2019-01-16T08:13:20.863Z,13.10
2019-01-16T08:18:42.608Z,10.03
2019-01-16T08:24:12.228Z,11.17
2019-01-16T08:29:48.913Z,12.30
2019-01-16T08:35:40.184Z,15.93
2019-01-16T08:41:18.130Z,11.00
2019-01-16T08:46:54.976Z,15.67
2019-01-16T08:52:39.308Z,8.03
2019-01-16T08:58:31.019Z,5.57
2019-01-16T09:04:16.102Z,6.20
2019-01-16T09:09:52.927Z,8.27
2019-01-16T09:15:34.995Z,5.10
2019-01-16T09:21:09.278Z,6.53
2019-01-16T09:26:54.292Z,5.20
2019-01-16T09:32:33.540Z,4.00
2019-01-16T09:38:07.474Z,5.03
2019-01-16T09:43:42.896Z,3.30
2019-01-16T09:49:20.634Z,4.20
2019-01-16T09:54:54.108Z,2.90
2019-01-16T10:00:38.732Z,3.70
2019-01-16T10:06:04.113Z,2.47
2019-01-16T10:11:55.662Z,2.97
2019-01-16T10:17:33.786Z,2.97
2019-01-16T10:23:02.355Z,2.70
2019-01-16T10:28:47.453Z,3.00
2019-01-16T10:34:15.272Z,2.80
2019-01-16T10:39:46.537Z,3.27
2019-01-16T10:45:21.693Z,2.70
2019-01-16T10:51:08.185Z,2.70
2019-01-16T10:56:42.481Z,2.97
2019-01-16T11:02:18.151Z,2.27
2019-01-16T11:07:47.989Z,2.70
2019-01-16T11:13:16.506Z,3.30
2019-01-16T11:18:58.588Z,3.00
2019-01-16T11:24:21.995Z,2.70
2019-01-16T11:29:35.752Z,2.17
2019-01-16T11:35:11.879Z,2.37
2019-01-16T11:40:52.444Z,2.60
2019-01-16T11:46:25.911Z,2.50
2019-01-16T11:52:05.468Z,1.77
2019-01-16T11:57:33.283Z,1.90
2019-01-16T12:03:15.148Z,2.20
2019-01-16T12:08:59.975Z,2.53
2019-01-16T12:14:28.308Z,2.30
2019-01-16T12:20:02.670Z,2.43
2019-01-16T12:25:31.326Z,2.07
2019-01-16T12:31:00.395Z,1.80
2019-01-16T12:36:28.509Z,2.30
2019-01-16T12:42:01.566Z,2.67
2019-01-16T12:47:36.288Z,1.87
2019-01-16T12:53:02.648Z,2.10
2019-01-16T12:58:38.903Z,2.20
2019-01-16T13:04:20.761Z,2.20
2019-01-16T13:09:50.989Z,2.60
2019-01-16T13:15:20.494Z,2.93
2019-01-16T13:20:57.669Z,2.57
2019-01-16T13:26:33.548Z,2.67
2019-01-16T13:32:06.119Z,2.80
2019-01-16T13:37:51.386Z,2.30
2019-01-16T13:43:30.414Z,2.10
2019-01-16T13:49:16.147Z,2.10
2019-01-16T13:55:00.223Z,2.00
2019-01-16T14:00:55.804Z,2.03
2019-01-16T14:06:40.194Z,2.00
2019-01-16T14:12:24.088Z,2.10
2019-01-16T14:17:52.774Z,2.00
2019-01-16T14:23:40.063Z,2.77
2019-01-16T14:29:11.757Z,2.73
2019-01-16T14:34:36.703Z,2.33
2019-01-16T14:40:07.055Z,2.50
2019-01-16T14:45:39.397Z,2.33
2019-01-16T14:51:06.699Z,2.77
2019-01-16T14:56:43.884Z,2.37
2019-01-16T15:02:14.757Z,2.30
2019-01-16T15:07:59.264Z,2.63
2019-01-16T15:13:25.995Z,2.07
2019-01-16T15:18:57.598Z,3.17
2019-01-16T15:24:28.615Z,3.70
2019-01-16T15:29:59.330Z,2.33
2019-01-16T15:35:34.938Z,3.00
2019-01-16T15:41:05.899Z,2.50
2019-01-16T15:46:29.792Z,5.07
2019-01-16T15:52:03.808Z,3.17
2019-01-16T15:57:44.614Z,3.27
2019-01-16T16:03:26.843Z,2.93
2019-01-16T16:09:01.462Z,3.10
2019-01-16T16:14:52.439Z,4.67
2019-01-16T16:20:22.914Z,2.87
2019-01-16T16:26:01.781Z,3.53
2019-01-16T16:31:34.085Z,3.87
2019-01-16T16:37:10.389Z,16.23
2019-01-16T16:42:45.194Z,22.27
2019-01-16T16:48:23.075Z,44.17
2019-01-16T16:54:08.639Z,43.67
2019-01-16T16:59:54.077Z,39.93
2019-01-16T17:11:52.560Z,69.00
2019-01-16T17:17:28.848Z,71.17
2019-01-16T17:23:16.928Z,75.33
2019-01-16T17:28:45.374Z,95.60
2019-01-16T17:34:17.081Z,63.87
2019-01-16T17:39:57.620Z,70.60
2019-01-16T17:45:24.116Z,50.00
2019-01-16T17:50:57.051Z,59.60
2019-01-16T17:56:38.324Z,15.67
2019-01-16T18:02:24.445Z,18.13
2019-01-16T18:07:53.125Z,14.03
2019-01-16T18:13:38.932Z,10.57
2019-01-16T18:19:11.971Z,4.10
2019-01-16T18:24:44.843Z,5.53
2019-01-16T18:36:44.450Z,10.63
2019-01-16T18:42:43.174Z,5.33
2019-01-16T18:48:25.961Z,4.77
2019-01-16T18:54:05.393Z,4.17
2019-01-16T18:59:47.625Z,3.73
2019-01-16T19:11:43.513Z,3.50
2019-01-16T19:17:27.270Z,3.00
2019-01-16T20:11:59.766Z,3.53
2019-01-16T20:17:43.741Z,3.00
2019-01-16T20:23:13.838Z,4.13
2019-01-16T20:29:03.699Z,4.07
2019-01-16T20:34:52.923Z,3.93
2019-01-16T20:40:37.732Z,6.40
2019-01-16T20:46:12.797Z,14.47
2019-01-16T20:52:03.291Z,13.03
2019-01-16T20:58:10.642Z,6.97
2019-01-16T21:10:00.202Z,4.90
2019-01-16T21:15:57.131Z,3.90
2019-01-16T21:21:36.640Z,5.67
2019-01-16T21:27:16.414Z,11.27
2019-01-16T21:33:10.537Z,22.30
2019-01-16T21:38:39.531Z,12.87
2019-01-16T21:44:38.902Z,14.13
2019-01-16T21:50:15.958Z,12.83
2019-01-16T21:56:10.724Z,18.73
2019-01-16T22:01:47.496Z,14.47
2019-01-16T22:07:35.644Z,7.50
2019-01-16T22:13:10.331Z,3.80
2019-01-16T22:19:05.657Z,11.23
2019-01-16T22:29:47.793Z,6.73
2019-01-16T22:35:54.540Z,5.67
2019-01-16T22:41:39.988Z,7.80
2019-01-16T22:47:34.684Z,8.87
2019-01-16T22:53:05.869Z,5.93
2019-01-16T22:58:42.874Z,6.47
2019-01-16T23:04:30.588Z,4.97
2019-01-16T23:10:13.465Z,4.93
2019-01-16T23:15:51.631Z,17.90
2019-01-16T23:21:38.212Z,14.00
2019-01-16T23:27:12.147Z,8.73
2019-01-16T23:32:49.465Z,7.63
2019-01-16T23:38:43.564Z,7.90
2019-01-16T23:44:28.923Z,11.13
2019-01-16T23:50:00.473Z,10.60
2019-01-16T23:55:35.699Z,10.53
